EFW9PF EGKK-HESH
Flight info
| Callsign | EFW9PF |
|---|---|
| Flight time | 4h 57m |
| Altitude | 33000 |
| Route | SFD4Z SFD Y47 BENBO L612 HAWKE UL612 VEULE DCT TEPRI DCT POGZI DCT GELTA DCT LUVAL DCT BEGAR DCT TRA DCT GAMSA/N0454F350 DCT GEDSO DCT VEKEN DCT DARZA DCT GLOMY DCT PETAK DCT DIMIS DCT SALUN N705 BOPIX N710 TAKRI M720 FYM M872 SEMRU W727 SHM DCT |
| Aircraft | A320/M-SDE3FGIJ1RWXY/SB1 |
Departure
| Time | 2026-05-07 07:50 |
|---|---|
| Airport | London Gatwick Airport (EGKK) |
Arrival
| Time | 2026-05-07 12:48 |
|---|---|
| Airport | Sharm El Sheikh International Airport (HESH) |
| Time | Latitude | Longitude | Altitude | Speed | Heading |
|---|---|---|---|---|---|
| 2026-05-07 07:06 | 51.15626 | -0.16585 | 205 ft | 0 kts | 168° |
| 2026-05-07 07:33 | 51.15632 | -0.16588 | 205 ft | 4 kts | 168° |
| 2026-05-07 07:34 | 51.15658 | -0.16597 | 209 ft | 4 kts | 168° |
| 2026-05-07 07:34 | 51.15680 | -0.16604 | 216 ft | 4 kts | 158° |
| 2026-05-07 07:34 | 51.15698 | -0.16627 | 215 ft | 4 kts | 101° |
| 2026-05-07 07:34 | 51.15696 | -0.16667 | 217 ft | 4 kts | 77° |
| 2026-05-07 07:35 | 51.15690 | -0.16707 | 215 ft | 4 kts | 78° |
| 2026-05-07 07:35 | 51.15685 | -0.16749 | 214 ft | 4 kts | 78° |
| 2026-05-07 07:35 | 51.15679 | -0.16791 | 216 ft | 4 kts | 77° |
| 2026-05-07 07:35 | 51.15673 | -0.16833 | 215 ft | 4 kts | 77° |
| 2026-05-07 07:36 | 51.15667 | -0.16874 | 214 ft | 4 kts | 77° |
| 2026-05-07 07:36 | 51.15661 | -0.16916 | 215 ft | 4 kts | 77° |
| 2026-05-07 07:36 | 51.15656 | -0.16956 | 211 ft | 3 kts | 78° |
| 2026-05-07 07:36 | 51.15654 | -0.16997 | 213 ft | 4 kts | 105° |
| 2026-05-07 07:37 | 51.15666 | -0.17030 | 215 ft | 4 kts | 150° |
| 2026-05-07 07:37 | 51.15690 | -0.17043 | 214 ft | 4 kts | 168° |
| 2026-05-07 07:37 | 51.15713 | -0.17051 | 211 ft | 1 kts | 168° |
| 2026-05-07 07:40 | 51.15711 | -0.17050 | 205 ft | 1 kts | 168° |
| 2026-05-07 07:40 | 51.15678 | -0.17039 | 205 ft | 7 kts | 169° |
| 2026-05-07 07:41 | 51.15639 | -0.17082 | 206 ft | 8 kts | 246° |
| 2026-05-07 07:41 | 51.15625 | -0.17170 | 207 ft | 9 kts | 256° |
| 2026-05-07 07:41 | 51.15610 | -0.17269 | 208 ft | 10 kts | 256° |
| 2026-05-07 07:41 | 51.15593 | -0.17379 | 210 ft | 11 kts | 256° |
| 2026-05-07 07:42 | 51.15552 | -0.17468 | 205 ft | 10 kts | 224° |
| 2026-05-07 07:42 | 51.15529 | -0.17581 | 210 ft | 11 kts | 259° |
| 2026-05-07 07:42 | 51.15513 | -0.17708 | 209 ft | 12 kts | 258° |
| 2026-05-07 07:42 | 51.15494 | -0.17847 | 205 ft | 13 kts | 257° |
| 2026-05-07 07:43 | 51.15473 | -0.17999 | 208 ft | 15 kts | 257° |
| 2026-05-07 07:43 | 51.15450 | -0.18162 | 212 ft | 16 kts | 257° |
| 2026-05-07 07:43 | 51.15418 | -0.18278 | 208 ft | 9 kts | 200° |
| 2026-05-07 07:43 | 51.15351 | -0.18267 | 210 ft | 10 kts | 167° |
| 2026-05-07 07:44 | 51.15277 | -0.18241 | 207 ft | 11 kts | 167° |
| 2026-05-07 07:44 | 51.15198 | -0.18239 | 212 ft | 11 kts | 210° |
| 2026-05-07 07:44 | 51.15178 | -0.18348 | 205 ft | 12 kts | 263° |
| 2026-05-07 07:44 | 51.15161 | -0.18508 | 213 ft | 16 kts | 258° |
| 2026-05-07 07:45 | 51.15136 | -0.18686 | 206 ft | 17 kts | 257° |
| 2026-05-07 07:45 | 51.15109 | -0.18881 | 208 ft | 19 kts | 258° |
| 2026-05-07 07:45 | 51.15081 | -0.19088 | 208 ft | 20 kts | 257° |
| 2026-05-07 07:45 | 51.15052 | -0.19306 | 210 ft | 21 kts | 258° |
| 2026-05-07 07:46 | 51.15020 | -0.19535 | 207 ft | 22 kts | 257° |
| 2026-05-07 07:46 | 51.14987 | -0.19777 | 210 ft | 23 kts | 258° |
| 2026-05-07 07:46 | 51.14952 | -0.20031 | 209 ft | 24 kts | 257° |
| 2026-05-07 07:46 | 51.14913 | -0.20298 | 215 ft | 25 kts | 257° |
| 2026-05-07 07:47 | 51.14872 | -0.20576 | 213 ft | 26 kts | 257° |
| 2026-05-07 07:47 | 51.14835 | -0.20861 | 206 ft | 27 kts | 262° |
| 2026-05-07 07:47 | 51.14810 | -0.21053 | 212 ft | 9 kts | 256° |
| 2026-05-07 07:47 | 51.14791 | -0.21156 | 209 ft | 10 kts | 246° |
| 2026-05-07 07:48 | 51.14769 | -0.21269 | 215 ft | 11 kts | 257° |
| 2026-05-07 07:48 | 51.14751 | -0.21388 | 212 ft | 9 kts | 240° |
| 2026-05-07 07:48 | 51.14691 | -0.21397 | 211 ft | 10 kts | 161° |
| 2026-05-07 07:48 | 51.14633 | -0.21336 | 207 ft | 10 kts | 158° |
| 2026-05-07 07:49 | 51.14562 | -0.21303 | 208 ft | 10 kts | 146° |
| 2026-05-07 07:49 | 51.14517 | -0.21212 | 212 ft | 6 kts | 110° |
| 2026-05-07 07:49 | 51.14522 | -0.21146 | 206 ft | 7 kts | 77° |
| 2026-05-07 07:49 | 51.14569 | -0.20824 | 217 ft | 63 kts | 76° |
| 2026-05-07 07:50 | 51.14709 | -0.19817 | 208 ft | 120 kts | 78° |
| 2026-05-07 07:50 | 51.14926 | -0.18262 | 214 ft | 165 kts | 77° |
| 2026-05-07 07:50 | 51.15164 | -0.16461 | 727 ft | 166 kts | 78° |
| 2026-05-07 07:50 | 51.15418 | -0.14657 | 1354 ft | 167 kts | 79° |
| 2026-05-07 07:51 | 51.15671 | -0.12780 | 1632 ft | 183 kts | 78° |
| 2026-05-07 07:51 | 51.15956 | -0.10680 | 1814 ft | 205 kts | 79° |
| 2026-05-07 07:51 | 51.16180 | -0.08352 | 2071 ft | 221 kts | 97° |
| 2026-05-07 07:51 | 51.15556 | -0.06148 | 2559 ft | 227 kts | 135° |
| 2026-05-07 07:52 | 51.14127 | -0.04899 | 2793 ft | 247 kts | 164° |
| 2026-05-07 07:52 | 51.12415 | -0.04226 | 3332 ft | 258 kts | 169° |
| 2026-05-07 07:52 | 51.10660 | -0.03696 | 4034 ft | 262 kts | 171° |
| 2026-05-07 07:52 | 51.08861 | -0.03146 | 4786 ft | 265 kts | 168° |
| 2026-05-07 07:53 | 51.07056 | -0.02431 | 5515 ft | 268 kts | 166° |
| 2026-05-07 07:53 | 51.05249 | -0.01615 | 6269 ft | 271 kts | 165° |
| 2026-05-07 07:53 | 51.03431 | -0.00752 | 6983 ft | 272 kts | 164° |
| 2026-05-07 07:53 | 51.01612 | 0.00127 | 7665 ft | 274 kts | 164° |
| 2026-05-07 07:54 | 50.99775 | 0.01014 | 8320 ft | 278 kts | 164° |
| 2026-05-07 07:54 | 50.97916 | 0.01908 | 8957 ft | 282 kts | 163° |
| 2026-05-07 07:54 | 50.96021 | 0.02815 | 9580 ft | 286 kts | 163° |
| 2026-05-07 07:54 | 50.94100 | 0.03727 | 10175 ft | 291 kts | 163° |
| 2026-05-07 07:55 | 50.92171 | 0.04637 | 10759 ft | 293 kts | 163° |
| 2026-05-07 07:55 | 50.90201 | 0.05566 | 11350 ft | 296 kts | 164° |
| 2026-05-07 07:55 | 50.88217 | 0.06500 | 11936 ft | 299 kts | 164° |
| 2026-05-07 07:55 | 50.86214 | 0.07443 | 12525 ft | 301 kts | 165° |
| 2026-05-07 07:56 | 50.84198 | 0.08389 | 13107 ft | 303 kts | 164° |
| 2026-05-07 07:56 | 50.82166 | 0.09340 | 13698 ft | 305 kts | 165° |
| 2026-05-07 07:56 | 50.80145 | 0.10286 | 14222 ft | 308 kts | 165° |
| 2026-05-07 07:56 | 50.78074 | 0.11241 | 14733 ft | 310 kts | 167° |
| 2026-05-07 07:57 | 50.75940 | 0.11703 | 15222 ft | 311 kts | 181° |
| 2026-05-07 07:57 | 50.73756 | 0.11387 | 15412 ft | 323 kts | 194° |
| 2026-05-07 07:57 | 50.71511 | 0.10554 | 15548 ft | 338 kts | 194° |
| 2026-05-07 07:57 | 50.69170 | 0.09688 | 15678 ft | 353 kts | 194° |
| 2026-05-07 07:58 | 50.66730 | 0.08796 | 15812 ft | 367 kts | 194° |
| 2026-05-07 07:58 | 50.64214 | 0.07884 | 16084 ft | 375 kts | 194° |
| 2026-05-07 07:58 | 50.61685 | 0.06972 | 16508 ft | 379 kts | 194° |
| 2026-05-07 07:58 | 50.59102 | 0.06044 | 16981 ft | 382 kts | 193° |
| 2026-05-07 07:59 | 50.56499 | 0.05110 | 17480 ft | 385 kts | 193° |
| 2026-05-07 07:59 | 50.53879 | 0.04166 | 17979 ft | 387 kts | 194° |
| 2026-05-07 07:59 | 50.51237 | 0.03215 | 18466 ft | 390 kts | 194° |
| 2026-05-07 07:59 | 50.48541 | 0.02558 | 18895 ft | 394 kts | 183° |
| 2026-05-07 08:00 | 50.45822 | 0.02746 | 19341 ft | 398 kts | 172° |
| 2026-05-07 08:00 | 50.43134 | 0.03801 | 19792 ft | 401 kts | 160° |
| 2026-05-07 08:00 | 50.40604 | 0.05711 | 20216 ft | 405 kts | 149° |
| 2026-05-07 08:00 | 50.38235 | 0.08159 | 20646 ft | 408 kts | 147° |
| 2026-05-07 08:01 | 50.35858 | 0.10620 | 21070 ft | 411 kts | 147° |
| 2026-05-07 08:01 | 50.33460 | 0.13093 | 21460 ft | 413 kts | 148° |
| 2026-05-07 08:01 | 50.31046 | 0.15576 | 21837 ft | 416 kts | 148° |
| 2026-05-07 08:01 | 50.28612 | 0.18077 | 22209 ft | 418 kts | 148° |
| 2026-05-07 08:02 | 50.26172 | 0.20584 | 22578 ft | 421 kts | 148° |
| 2026-05-07 08:02 | 50.23716 | 0.23099 | 22933 ft | 423 kts | 148° |
| 2026-05-07 08:02 | 50.21251 | 0.25631 | 23288 ft | 425 kts | 148° |
| 2026-05-07 08:02 | 50.18772 | 0.28178 | 23621 ft | 428 kts | 148° |
| 2026-05-07 08:03 | 50.16312 | 0.30707 | 23901 ft | 430 kts | 148° |
| 2026-05-07 08:03 | 50.13808 | 0.33281 | 24185 ft | 432 kts | 148° |
| 2026-05-07 08:03 | 50.11289 | 0.35870 | 24478 ft | 434 kts | 148° |
| 2026-05-07 08:03 | 50.08757 | 0.38469 | 24760 ft | 435 kts | 148° |
| 2026-05-07 08:04 | 50.06220 | 0.41074 | 25038 ft | 437 kts | 148° |
| 2026-05-07 08:04 | 50.03673 | 0.43685 | 25310 ft | 439 kts | 148° |
| 2026-05-07 08:04 | 50.01145 | 0.46265 | 25576 ft | 440 kts | 148° |
| 2026-05-07 08:04 | 49.98578 | 0.48878 | 25850 ft | 442 kts | 148° |
| 2026-05-07 08:05 | 49.95988 | 0.51518 | 26107 ft | 444 kts | 148° |
| 2026-05-07 08:05 | 49.93404 | 0.54147 | 26369 ft | 446 kts | 148° |
| 2026-05-07 08:05 | 49.90803 | 0.56785 | 26697 ft | 446 kts | 148° |
| 2026-05-07 08:05 | 49.88211 | 0.59414 | 27086 ft | 444 kts | 148° |
| 2026-05-07 08:06 | 49.85721 | 0.62252 | 27466 ft | 445 kts | 140° |
| 2026-05-07 08:06 | 49.83524 | 0.65640 | 27849 ft | 446 kts | 133° |
| 2026-05-07 08:06 | 49.81445 | 0.69201 | 28224 ft | 445 kts | 133° |
| 2026-05-07 08:06 | 49.79386 | 0.72703 | 28600 ft | 444 kts | 134° |
| 2026-05-07 08:07 | 49.77305 | 0.76223 | 28969 ft | 443 kts | 134° |
| 2026-05-07 08:07 | 49.75219 | 0.79746 | 29328 ft | 443 kts | 134° |
| 2026-05-07 08:07 | 49.73142 | 0.83250 | 29703 ft | 442 kts | 134° |
| 2026-05-07 08:07 | 49.71066 | 0.86753 | 30072 ft | 442 kts | 134° |
| 2026-05-07 08:08 | 49.68992 | 0.90252 | 30402 ft | 441 kts | 134° |
| 2026-05-07 08:08 | 49.66917 | 0.93741 | 30729 ft | 440 kts | 134° |
| 2026-05-07 08:08 | 49.64848 | 0.97212 | 31060 ft | 439 kts | 134° |
| 2026-05-07 08:08 | 49.62782 | 1.00675 | 31381 ft | 439 kts | 134° |
| 2026-05-07 08:09 | 49.60716 | 1.04137 | 31694 ft | 438 kts | 134° |
| 2026-05-07 08:09 | 49.58641 | 1.07600 | 32020 ft | 437 kts | 134° |
| 2026-05-07 08:09 | 49.56576 | 1.11042 | 32330 ft | 437 kts | 134° |
| 2026-05-07 08:09 | 49.54515 | 1.14475 | 32634 ft | 436 kts | 134° |
| 2026-05-07 08:10 | 49.52480 | 1.17861 | 32940 ft | 436 kts | 134° |
| 2026-05-07 08:10 | 49.50415 | 1.21304 | 33062 ft | 438 kts | 134° |
| 2026-05-07 08:10 | 49.48332 | 1.24774 | 33086 ft | 444 kts | 134° |
| 2026-05-07 08:11 | 49.44803 | 1.30634 | 33084 ft | 454 kts | 134° |
| 2026-05-07 08:11 | 49.40482 | 1.37779 | 33081 ft | 456 kts | 134° |
| 2026-05-07 08:12 | 49.36154 | 1.44922 | 33077 ft | 456 kts | 134° |
| 2026-05-07 08:12 | 49.31854 | 1.52008 | 33073 ft | 456 kts | 134° |
| 2026-05-07 08:13 | 49.27523 | 1.59129 | 33061 ft | 456 kts | 134° |
| 2026-05-07 08:13 | 49.23186 | 1.66239 | 33064 ft | 457 kts | 134° |
| 2026-05-07 08:14 | 49.18839 | 1.73328 | 33068 ft | 457 kts | 134° |
| 2026-05-07 08:14 | 49.14482 | 1.80407 | 33069 ft | 457 kts | 134° |
| 2026-05-07 08:15 | 49.10151 | 1.87429 | 33069 ft | 457 kts | 134° |
| 2026-05-07 08:15 | 49.05792 | 1.94493 | 33062 ft | 457 kts | 134° |
| 2026-05-07 08:16 | 49.01439 | 2.01531 | 33063 ft | 456 kts | 134° |
| 2026-05-07 08:16 | 48.97075 | 2.08563 | 33074 ft | 457 kts | 134° |
| 2026-05-07 08:17 | 48.92703 | 2.15584 | 33064 ft | 457 kts | 134° |
| 2026-05-07 08:17 | 48.88332 | 2.22586 | 33066 ft | 457 kts | 134° |
| 2026-05-07 08:18 | 48.83976 | 2.29534 | 33080 ft | 457 kts | 134° |
| 2026-05-07 08:18 | 48.79587 | 2.36524 | 33064 ft | 456 kts | 134° |
| 2026-05-07 08:19 | 48.75199 | 2.43492 | 33065 ft | 456 kts | 134° |
| 2026-05-07 08:19 | 48.70834 | 2.50411 | 33074 ft | 456 kts | 134° |
| 2026-05-07 08:20 | 48.66432 | 2.57364 | 33064 ft | 456 kts | 134° |
| 2026-05-07 08:20 | 48.62025 | 2.64298 | 33071 ft | 456 kts | 134° |
| 2026-05-07 08:21 | 48.57907 | 2.71585 | 33059 ft | 457 kts | 122° |
| 2026-05-07 08:21 | 48.55420 | 2.80379 | 33055 ft | 457 kts | 103° |
| 2026-05-07 08:22 | 48.54744 | 2.89834 | 33052 ft | 456 kts | 92° |
| 2026-05-07 08:22 | 48.54424 | 2.99423 | 33052 ft | 457 kts | 92° |
| 2026-05-07 08:23 | 48.54096 | 3.09016 | 33067 ft | 458 kts | 92° |
| 2026-05-07 08:23 | 48.53760 | 3.18621 | 33065 ft | 458 kts | 92° |
| 2026-05-07 08:24 | 48.53416 | 3.28160 | 33065 ft | 458 kts | 92° |
| 2026-05-07 08:24 | 48.53062 | 3.37748 | 33064 ft | 458 kts | 92° |
| 2026-05-07 08:25 | 48.52696 | 3.47355 | 33077 ft | 458 kts | 92° |
| 2026-05-07 08:25 | 48.52326 | 3.56958 | 33070 ft | 458 kts | 92° |
| 2026-05-07 08:26 | 48.51762 | 3.71275 | 33068 ft | 457 kts | 92° |
| 2026-05-07 08:26 | 48.51379 | 3.80868 | 33066 ft | 457 kts | 92° |
| 2026-05-07 08:27 | 48.50982 | 3.90451 | 33070 ft | 457 kts | 93° |
| 2026-05-07 08:27 | 48.50558 | 3.99983 | 33069 ft | 458 kts | 95° |
| 2026-05-07 08:28 | 48.49185 | 4.09354 | 33064 ft | 458 kts | 105° |
| 2026-05-07 08:28 | 48.47491 | 4.18619 | 33066 ft | 458 kts | 105° |
| 2026-05-07 08:29 | 48.45800 | 4.27894 | 33066 ft | 459 kts | 104° |
| 2026-05-07 08:29 | 48.44105 | 4.37170 | 33072 ft | 459 kts | 105° |
| 2026-05-07 08:30 | 48.42402 | 4.46372 | 33065 ft | 459 kts | 105° |
| 2026-05-07 08:30 | 48.40682 | 4.55629 | 33067 ft | 459 kts | 105° |
| 2026-05-07 08:31 | 48.38960 | 4.64876 | 33066 ft | 459 kts | 105° |
| 2026-05-07 08:31 | 48.37223 | 4.74118 | 33073 ft | 459 kts | 105° |
| 2026-05-07 08:32 | 48.35488 | 4.83302 | 33068 ft | 458 kts | 105° |
| 2026-05-07 08:32 | 48.33746 | 4.92537 | 33066 ft | 458 kts | 105° |
| 2026-05-07 08:33 | 48.31998 | 5.01769 | 33056 ft | 459 kts | 105° |
| 2026-05-07 08:33 | 48.30248 | 5.10931 | 33054 ft | 459 kts | 105° |
| 2026-05-07 08:34 | 48.28534 | 5.20228 | 33055 ft | 459 kts | 103° |
| 2026-05-07 08:34 | 48.27168 | 5.29536 | 33055 ft | 459 kts | 101° |
| 2026-05-07 08:35 | 48.25890 | 5.38942 | 33052 ft | 460 kts | 101° |
| 2026-05-07 08:35 | 48.24534 | 5.48323 | 33053 ft | 460 kts | 102° |
| 2026-05-07 08:36 | 48.23098 | 5.57673 | 33055 ft | 460 kts | 103° |
| 2026-05-07 08:36 | 48.21655 | 5.67019 | 33051 ft | 460 kts | 103° |
| 2026-05-07 08:37 | 48.20240 | 5.76317 | 33062 ft | 460 kts | 103° |
| 2026-05-07 08:37 | 48.18821 | 5.85667 | 33061 ft | 460 kts | 103° |
| 2026-05-07 08:38 | 48.17378 | 5.95017 | 33063 ft | 460 kts | 103° |
| 2026-05-07 08:38 | 48.15923 | 6.04370 | 33067 ft | 460 kts | 103° |
| 2026-05-07 08:39 | 48.14478 | 6.13654 | 33067 ft | 460 kts | 103° |
| 2026-05-07 08:39 | 48.13018 | 6.22983 | 33064 ft | 460 kts | 103° |
| 2026-05-07 08:40 | 48.11547 | 6.32300 | 33063 ft | 460 kts | 103° |
| 2026-05-07 08:40 | 48.10070 | 6.41612 | 33067 ft | 460 kts | 103° |
| 2026-05-07 08:41 | 48.08589 | 6.50918 | 33064 ft | 460 kts | 103° |
| 2026-05-07 08:41 | 48.07103 | 6.60173 | 33064 ft | 460 kts | 104° |
| 2026-05-07 08:42 | 48.05594 | 6.69461 | 33064 ft | 460 kts | 104° |
| 2026-05-07 08:42 | 48.04089 | 6.78747 | 33064 ft | 460 kts | 104° |
| 2026-05-07 08:43 | 48.02572 | 6.88038 | 33066 ft | 460 kts | 104° |
| 2026-05-07 08:43 | 48.01047 | 6.97321 | 33049 ft | 460 kts | 104° |
| 2026-05-07 08:44 | 47.99516 | 7.06601 | 33038 ft | 460 kts | 104° |
| 2026-05-07 08:44 | 47.97987 | 7.15827 | 33037 ft | 460 kts | 104° |
| 2026-05-07 08:45 | 47.96443 | 7.25111 | 33045 ft | 461 kts | 104° |
| 2026-05-07 08:45 | 47.94889 | 7.34396 | 33046 ft | 461 kts | 104° |
| 2026-05-07 08:46 | 47.93320 | 7.43683 | 33044 ft | 461 kts | 104° |
| 2026-05-07 08:46 | 47.91749 | 7.52897 | 33059 ft | 461 kts | 104° |
| 2026-05-07 08:47 | 47.89901 | 7.62040 | 33060 ft | 461 kts | 111° |
| 2026-05-07 08:47 | 47.87637 | 7.71018 | 33057 ft | 462 kts | 111° |
| 2026-05-07 08:48 | 47.85384 | 7.79916 | 33049 ft | 462 kts | 111° |
| 2026-05-07 08:48 | 47.83103 | 7.88870 | 33049 ft | 462 kts | 111° |
| 2026-05-07 08:49 | 47.80813 | 7.97822 | 33052 ft | 463 kts | 111° |
| 2026-05-07 08:49 | 47.78532 | 8.06706 | 33055 ft | 463 kts | 111° |
| 2026-05-07 08:50 | 47.76224 | 8.15654 | 33053 ft | 463 kts | 111° |
| 2026-05-07 08:50 | 47.73915 | 8.24594 | 33056 ft | 463 kts | 111° |
| 2026-05-07 08:51 | 47.71596 | 8.33513 | 33058 ft | 463 kts | 112° |
| 2026-05-07 08:51 | 47.69270 | 8.42439 | 33055 ft | 463 kts | 112° |
| 2026-05-07 08:52 | 47.67082 | 8.51376 | 33062 ft | 463 kts | 109° |
| 2026-05-07 08:52 | 47.65088 | 8.60475 | 33060 ft | 463 kts | 108° |
| 2026-05-07 08:53 | 47.63105 | 8.69571 | 33060 ft | 463 kts | 109° |
| 2026-05-07 08:53 | 47.61054 | 8.78629 | 33058 ft | 463 kts | 109° |
| 2026-05-07 08:54 | 47.58968 | 8.87669 | 33056 ft | 463 kts | 110° |
| 2026-05-07 08:54 | 47.56878 | 8.96704 | 33055 ft | 464 kts | 109° |
| 2026-05-07 08:55 | 47.54804 | 9.05684 | 33052 ft | 464 kts | 109° |
| 2026-05-07 08:55 | 47.52710 | 9.14731 | 33051 ft | 464 kts | 110° |
| 2026-05-07 08:56 | 47.50600 | 9.23769 | 33052 ft | 464 kts | 110° |
| 2026-05-07 08:56 | 47.48487 | 9.32806 | 33048 ft | 464 kts | 110° |
| 2026-05-07 08:57 | 47.46386 | 9.41762 | 33059 ft | 464 kts | 110° |
| 2026-05-07 08:57 | 47.44261 | 9.50791 | 33062 ft | 465 kts | 110° |
| 2026-05-07 08:58 | 47.42127 | 9.59808 | 33065 ft | 465 kts | 110° |
| 2026-05-07 08:58 | 47.40539 | 9.67392 | 33052 ft | 466 kts | 103° |
| 2026-05-07 08:59 | 47.39902 | 9.72099 | 33239 ft | 468 kts | 103° |
| 2026-05-07 08:59 | 47.39257 | 9.76808 | 33508 ft | 468 kts | 103° |
| 2026-05-07 08:59 | 47.38389 | 9.83045 | 33855 ft | 468 kts | 104° |
| 2026-05-07 08:59 | 47.37941 | 9.86227 | 34011 ft | 469 kts | 104° |
| 2026-05-07 09:00 | 47.37279 | 9.90932 | 34217 ft | 469 kts | 104° |
| 2026-05-07 09:00 | 47.36623 | 9.95606 | 34408 ft | 470 kts | 104° |
| 2026-05-07 09:00 | 47.35960 | 10.00329 | 34602 ft | 470 kts | 104° |
| 2026-05-07 09:00 | 47.35295 | 10.05052 | 34776 ft | 471 kts | 104° |
| 2026-05-07 09:01 | 47.34629 | 10.09782 | 34962 ft | 471 kts | 104° |
| 2026-05-07 09:01 | 47.33957 | 10.14528 | 35034 ft | 472 kts | 104° |
| 2026-05-07 09:01 | 47.32610 | 10.23995 | 35030 ft | 471 kts | 105° |
| 2026-05-07 09:02 | 47.31259 | 10.33462 | 35024 ft | 471 kts | 105° |
| 2026-05-07 09:02 | 47.29900 | 10.42867 | 35015 ft | 471 kts | 105° |
| 2026-05-07 09:03 | 47.28523 | 10.52300 | 35009 ft | 471 kts | 105° |
| 2026-05-07 09:03 | 47.27151 | 10.61684 | 35016 ft | 471 kts | 105° |
| 2026-05-07 09:04 | 47.25765 | 10.71119 | 35012 ft | 471 kts | 105° |
| 2026-05-07 09:04 | 47.24378 | 10.80555 | 34985 ft | 471 kts | 105° |
| 2026-05-07 09:05 | 47.22981 | 10.89975 | 34989 ft | 471 kts | 106° |
| 2026-05-07 09:05 | 47.21569 | 10.99407 | 34998 ft | 472 kts | 107° |
| 2026-05-07 09:06 | 47.20149 | 11.08832 | 34997 ft | 472 kts | 107° |
| 2026-05-07 09:06 | 47.18724 | 11.18258 | 35000 ft | 473 kts | 107° |
| 2026-05-07 09:07 | 47.17297 | 11.27644 | 34991 ft | 473 kts | 107° |
| 2026-05-07 09:07 | 47.15853 | 11.37091 | 35001 ft | 473 kts | 107° |
| 2026-05-07 09:08 | 47.14398 | 11.46536 | 35012 ft | 474 kts | 107° |
| 2026-05-07 09:08 | 47.12933 | 11.55986 | 35015 ft | 474 kts | 107° |
| 2026-05-07 09:09 | 47.11468 | 11.65422 | 35009 ft | 473 kts | 108° |
| 2026-05-07 09:09 | 47.10004 | 11.74773 | 35021 ft | 472 kts | 108° |
| 2026-05-07 09:10 | 47.08503 | 11.84168 | 35023 ft | 470 kts | 110° |
| 2026-05-07 09:10 | 47.06090 | 11.92923 | 35024 ft | 461 kts | 122° |
| 2026-05-07 09:11 | 47.03277 | 12.01365 | 35011 ft | 460 kts | 122° |
| 2026-05-07 09:11 | 47.00453 | 12.09803 | 35002 ft | 460 kts | 122° |
| 2026-05-07 09:12 | 46.97637 | 12.18172 | 34996 ft | 461 kts | 122° |
| 2026-05-07 09:12 | 46.94799 | 12.26591 | 35020 ft | 461 kts | 122° |
| 2026-05-07 09:13 | 46.91948 | 12.34998 | 34976 ft | 460 kts | 123° |
| 2026-05-07 09:13 | 46.89115 | 12.43337 | 34994 ft | 460 kts | 123° |
| 2026-05-07 09:14 | 46.86272 | 12.51715 | 35000 ft | 460 kts | 123° |
| 2026-05-07 09:14 | 46.83412 | 12.60088 | 34997 ft | 460 kts | 123° |
| 2026-05-07 09:15 | 46.80537 | 12.68460 | 34994 ft | 460 kts | 123° |
| 2026-05-07 09:15 | 46.77685 | 12.76756 | 34965 ft | 459 kts | 123° |
| 2026-05-07 09:16 | 46.74819 | 12.85073 | 34992 ft | 459 kts | 123° |
| 2026-05-07 09:16 | 46.71945 | 12.93381 | 34997 ft | 459 kts | 123° |
| 2026-05-07 09:17 | 46.69065 | 13.01679 | 34997 ft | 458 kts | 123° |
| 2026-05-07 09:17 | 46.66185 | 13.09943 | 34963 ft | 457 kts | 124° |
| 2026-05-07 09:18 | 46.63321 | 13.18148 | 34982 ft | 457 kts | 124° |
| 2026-05-07 09:18 | 46.60435 | 13.26390 | 34996 ft | 457 kts | 124° |
| 2026-05-07 09:19 | 46.57535 | 13.34615 | 34981 ft | 456 kts | 126° |
| 2026-05-07 09:19 | 46.53853 | 13.41899 | 34993 ft | 442 kts | 140° |
| 2026-05-07 09:20 | 46.49666 | 13.48438 | 34979 ft | 442 kts | 140° |
| 2026-05-07 09:20 | 46.45479 | 13.54977 | 34992 ft | 441 kts | 140° |
| 2026-05-07 09:21 | 46.41319 | 13.61463 | 35000 ft | 441 kts | 140° |
| 2026-05-07 09:21 | 46.37136 | 13.67967 | 35007 ft | 441 kts | 140° |
| 2026-05-07 09:22 | 46.32975 | 13.74413 | 34961 ft | 441 kts | 140° |
| 2026-05-07 09:22 | 46.28770 | 13.80921 | 34979 ft | 441 kts | 140° |
| 2026-05-07 09:23 | 46.24573 | 13.87400 | 35000 ft | 441 kts | 141° |
| 2026-05-07 09:23 | 46.20370 | 13.93856 | 35002 ft | 441 kts | 141° |
| 2026-05-07 09:24 | 46.16192 | 14.00268 | 35008 ft | 441 kts | 140° |
| 2026-05-07 09:24 | 46.11987 | 14.06718 | 34969 ft | 441 kts | 140° |
| 2026-05-07 09:25 | 46.07774 | 14.13171 | 34978 ft | 442 kts | 141° |
| 2026-05-07 09:25 | 46.03545 | 14.19622 | 34980 ft | 443 kts | 141° |
| 2026-05-07 09:26 | 45.99295 | 14.26078 | 34993 ft | 445 kts | 141° |
| 2026-05-07 09:26 | 45.95034 | 14.32543 | 34998 ft | 445 kts | 141° |
| 2026-05-07 09:27 | 45.90796 | 14.38955 | 34995 ft | 445 kts | 141° |
| 2026-05-07 09:28 | 45.84399 | 14.48610 | 35011 ft | 444 kts | 141° |
| 2026-05-07 09:28 | 45.80135 | 14.55035 | 35016 ft | 444 kts | 141° |
| 2026-05-07 09:29 | 45.75870 | 14.61441 | 35028 ft | 444 kts | 141° |
| 2026-05-07 09:29 | 45.71633 | 14.67788 | 35005 ft | 443 kts | 141° |
| 2026-05-07 09:30 | 45.67368 | 14.74170 | 35028 ft | 442 kts | 141° |
| 2026-05-07 09:30 | 45.63105 | 14.80522 | 35032 ft | 442 kts | 141° |
| 2026-05-07 09:31 | 45.58869 | 14.86829 | 35018 ft | 442 kts | 142° |
| 2026-05-07 09:32 | 45.50286 | 14.97995 | 35006 ft | 436 kts | 147° |
| 2026-05-07 09:32 | 45.45675 | 15.03626 | 35019 ft | 437 kts | 146° |
| 2026-05-07 09:33 | 45.41139 | 15.09323 | 35024 ft | 437 kts | 146° |
| 2026-05-07 09:33 | 45.36592 | 15.15093 | 35036 ft | 438 kts | 146° |
| 2026-05-07 09:34 | 45.32034 | 15.20845 | 35031 ft | 438 kts | 146° |
| 2026-05-07 09:34 | 45.27466 | 15.26576 | 35034 ft | 438 kts | 146° |
| 2026-05-07 09:36 | 45.13634 | 15.43840 | 35052 ft | 438 kts | 146° |
| 2026-05-07 09:36 | 45.09076 | 15.49507 | 35027 ft | 438 kts | 146° |
| 2026-05-07 09:37 | 45.04487 | 15.55195 | 35010 ft | 439 kts | 146° |
| 2026-05-07 09:37 | 44.99879 | 15.60896 | 35024 ft | 440 kts | 146° |
| 2026-05-07 09:38 | 44.95262 | 15.66601 | 35036 ft | 440 kts | 146° |
| 2026-05-07 09:38 | 44.90668 | 15.72253 | 35049 ft | 440 kts | 146° |
| 2026-05-07 09:39 | 44.86041 | 15.77927 | 35036 ft | 441 kts | 146° |
| 2026-05-07 09:39 | 44.81407 | 15.83607 | 35016 ft | 442 kts | 146° |
| 2026-05-07 09:40 | 44.76761 | 15.89307 | 35032 ft | 443 kts | 145° |
| 2026-05-07 09:40 | 44.72096 | 15.95015 | 35049 ft | 444 kts | 146° |
| 2026-05-07 09:41 | 44.67447 | 16.00676 | 35062 ft | 445 kts | 146° |
| 2026-05-07 09:41 | 44.62763 | 16.06363 | 35037 ft | 445 kts | 145° |
| 2026-05-07 09:42 | 44.58074 | 16.12052 | 35050 ft | 445 kts | 145° |
| 2026-05-07 09:42 | 44.53387 | 16.17727 | 35057 ft | 445 kts | 145° |
| 2026-05-07 09:43 | 44.48694 | 16.23401 | 35066 ft | 445 kts | 145° |
| 2026-05-07 09:43 | 44.44021 | 16.29036 | 35071 ft | 445 kts | 145° |
| 2026-05-07 09:44 | 44.39322 | 16.34683 | 35040 ft | 445 kts | 144° |
| 2026-05-07 09:44 | 44.34628 | 16.40316 | 35053 ft | 444 kts | 144° |
| 2026-05-07 09:45 | 44.29927 | 16.45944 | 35057 ft | 444 kts | 144° |
| 2026-05-07 09:45 | 44.25251 | 16.51530 | 35070 ft | 445 kts | 145° |
| 2026-05-07 09:46 | 44.20539 | 16.57139 | 35070 ft | 445 kts | 145° |
| 2026-05-07 09:46 | 44.15825 | 16.62753 | 35057 ft | 445 kts | 144° |
| 2026-05-07 09:47 | 44.11115 | 16.68348 | 35081 ft | 445 kts | 144° |
| 2026-05-07 09:47 | 44.06421 | 16.73901 | 35093 ft | 445 kts | 144° |
| 2026-05-07 09:48 | 44.01694 | 16.79482 | 35107 ft | 445 kts | 144° |
| 2026-05-07 09:48 | 43.96970 | 16.85052 | 35103 ft | 444 kts | 144° |
| 2026-05-07 09:49 | 43.92287 | 16.90571 | 35107 ft | 443 kts | 144° |
| 2026-05-07 09:49 | 43.87579 | 16.96094 | 35110 ft | 443 kts | 144° |
| 2026-05-07 09:50 | 43.82861 | 17.01612 | 35124 ft | 443 kts | 144° |
| 2026-05-07 09:50 | 43.78144 | 17.07121 | 35124 ft | 443 kts | 144° |
| 2026-05-07 09:51 | 43.73439 | 17.12624 | 35126 ft | 442 kts | 144° |
| 2026-05-07 09:51 | 43.68772 | 17.18068 | 35133 ft | 441 kts | 144° |
| 2026-05-07 09:52 | 43.64070 | 17.23518 | 35126 ft | 440 kts | 144° |
| 2026-05-07 09:52 | 43.59378 | 17.28953 | 35118 ft | 440 kts | 144° |
| 2026-05-07 09:53 | 43.54702 | 17.34370 | 35131 ft | 440 kts | 144° |
| 2026-05-07 09:53 | 43.50000 | 17.39793 | 35111 ft | 440 kts | 144° |
| 2026-05-07 09:54 | 43.45300 | 17.45199 | 35117 ft | 440 kts | 144° |
| 2026-05-07 09:54 | 43.40603 | 17.50604 | 35118 ft | 440 kts | 144° |
| 2026-05-07 09:55 | 43.35937 | 17.55963 | 35118 ft | 440 kts | 145° |
| 2026-05-07 09:55 | 43.31230 | 17.61349 | 35117 ft | 440 kts | 145° |
| 2026-05-07 09:56 | 43.26515 | 17.66718 | 35125 ft | 440 kts | 145° |
| 2026-05-07 09:56 | 43.21798 | 17.72089 | 35121 ft | 440 kts | 145° |
| 2026-05-07 09:57 | 43.17094 | 17.77455 | 35125 ft | 439 kts | 145° |
| 2026-05-07 09:57 | 43.12400 | 17.82787 | 35116 ft | 438 kts | 145° |
| 2026-05-07 09:58 | 43.07742 | 17.88059 | 35116 ft | 436 kts | 145° |
| 2026-05-07 09:58 | 43.03058 | 17.93346 | 35125 ft | 435 kts | 145° |
| 2026-05-07 09:59 | 42.98383 | 17.98620 | 35119 ft | 435 kts | 145° |
| 2026-05-07 09:59 | 42.93740 | 18.03846 | 35122 ft | 435 kts | 144° |
| 2026-05-07 10:00 | 42.89061 | 18.09109 | 35121 ft | 436 kts | 144° |
| 2026-05-07 10:00 | 42.84369 | 18.14378 | 35122 ft | 436 kts | 145° |
| 2026-05-07 10:01 | 42.79708 | 18.19602 | 35128 ft | 436 kts | 145° |
| 2026-05-07 10:01 | 42.75010 | 18.24846 | 35131 ft | 437 kts | 145° |
| 2026-05-07 10:02 | 42.70303 | 18.30082 | 35109 ft | 437 kts | 145° |
| 2026-05-07 10:02 | 42.65586 | 18.35326 | 35110 ft | 438 kts | 145° |
| 2026-05-07 10:03 | 42.60866 | 18.40577 | 35112 ft | 438 kts | 145° |
| 2026-05-07 10:03 | 42.56145 | 18.45814 | 35107 ft | 438 kts | 145° |
| 2026-05-07 10:04 | 42.51445 | 18.50997 | 35120 ft | 437 kts | 145° |
| 2026-05-07 10:04 | 42.46722 | 18.56201 | 35115 ft | 437 kts | 145° |
| 2026-05-07 10:05 | 42.41992 | 18.61410 | 35116 ft | 437 kts | 145° |
| 2026-05-07 10:05 | 42.37270 | 18.66602 | 35117 ft | 437 kts | 145° |
| 2026-05-07 10:06 | 42.32549 | 18.71789 | 35121 ft | 437 kts | 145° |
| 2026-05-07 10:06 | 42.27846 | 18.76934 | 35142 ft | 437 kts | 145° |
| 2026-05-07 10:07 | 42.23119 | 18.82094 | 35128 ft | 436 kts | 145° |
| 2026-05-07 10:07 | 42.18412 | 18.87237 | 35145 ft | 435 kts | 145° |
| 2026-05-07 10:08 | 42.13706 | 18.92357 | 35146 ft | 434 kts | 145° |
| 2026-05-07 10:08 | 42.09008 | 18.97450 | 35142 ft | 433 kts | 145° |
| 2026-05-07 10:09 | 42.04342 | 19.02509 | 35144 ft | 433 kts | 145° |
| 2026-05-07 10:09 | 41.99639 | 19.07596 | 35127 ft | 433 kts | 145° |
| 2026-05-07 10:10 | 41.94933 | 19.12678 | 35102 ft | 434 kts | 145° |
| 2026-05-07 10:10 | 41.91024 | 19.16890 | 35112 ft | 434 kts | 145° |
| 2026-05-07 10:11 | 41.86313 | 19.21953 | 35117 ft | 434 kts | 145° |
| 2026-05-07 10:11 | 41.81593 | 19.27013 | 35121 ft | 434 kts | 145° |
| 2026-05-07 10:12 | 41.76839 | 19.31898 | 35107 ft | 430 kts | 152° |
| 2026-05-07 10:12 | 41.71664 | 19.35925 | 35110 ft | 430 kts | 153° |
| 2026-05-07 10:13 | 41.66474 | 19.39931 | 35110 ft | 430 kts | 153° |
| 2026-05-07 10:13 | 41.61310 | 19.43920 | 35115 ft | 430 kts | 153° |
| 2026-05-07 10:14 | 41.56112 | 19.47922 | 35094 ft | 431 kts | 154° |
| 2026-05-07 10:14 | 41.50891 | 19.51935 | 35083 ft | 434 kts | 154° |
| 2026-05-07 10:15 | 41.45635 | 19.55965 | 35087 ft | 436 kts | 154° |
| 2026-05-07 10:15 | 41.40394 | 19.59975 | 35091 ft | 438 kts | 154° |
| 2026-05-07 10:16 | 41.35095 | 19.64025 | 35094 ft | 439 kts | 154° |
| 2026-05-07 10:16 | 41.29800 | 19.68073 | 35088 ft | 439 kts | 154° |
| 2026-05-07 10:17 | 41.24484 | 19.72118 | 35093 ft | 440 kts | 154° |
| 2026-05-07 10:17 | 41.19188 | 19.76136 | 35096 ft | 441 kts | 154° |
| 2026-05-07 10:18 | 41.13853 | 19.80179 | 35097 ft | 441 kts | 154° |
| 2026-05-07 10:18 | 41.08532 | 19.84202 | 35134 ft | 439 kts | 154° |
| 2026-05-07 10:19 | 41.03243 | 19.88200 | 35139 ft | 437 kts | 154° |
| 2026-05-07 10:19 | 40.97968 | 19.92178 | 35137 ft | 435 kts | 154° |
| 2026-05-07 10:20 | 40.92735 | 19.96118 | 35140 ft | 434 kts | 154° |
| 2026-05-07 10:20 | 40.87484 | 20.00066 | 35138 ft | 434 kts | 154° |
| 2026-05-07 10:21 | 40.82231 | 20.04008 | 35125 ft | 434 kts | 154° |
| 2026-05-07 10:21 | 40.76964 | 20.07955 | 35129 ft | 435 kts | 154° |
| 2026-05-07 10:22 | 40.71723 | 20.11887 | 35133 ft | 436 kts | 154° |
| 2026-05-07 10:22 | 40.66437 | 20.15826 | 35137 ft | 435 kts | 154° |
| 2026-05-07 10:23 | 40.61163 | 20.19746 | 35153 ft | 434 kts | 154° |
| 2026-05-07 10:23 | 40.55928 | 20.23644 | 35158 ft | 434 kts | 154° |
| 2026-05-07 10:24 | 40.50664 | 20.27544 | 35161 ft | 434 kts | 154° |
| 2026-05-07 10:24 | 40.45387 | 20.31440 | 35158 ft | 434 kts | 154° |
| 2026-05-07 10:25 | 40.40119 | 20.35332 | 35166 ft | 434 kts | 154° |
| 2026-05-07 10:25 | 40.34847 | 20.39221 | 35149 ft | 435 kts | 154° |
| 2026-05-07 10:26 | 40.29588 | 20.43089 | 35141 ft | 437 kts | 154° |
| 2026-05-07 10:26 | 40.24277 | 20.46995 | 35139 ft | 438 kts | 154° |
| 2026-05-07 10:27 | 40.18947 | 20.50903 | 35135 ft | 439 kts | 153° |
| 2026-05-07 10:27 | 40.13610 | 20.54807 | 35139 ft | 440 kts | 153° |
| 2026-05-07 10:28 | 40.08257 | 20.58728 | 35133 ft | 442 kts | 154° |
| 2026-05-07 10:28 | 40.02888 | 20.62570 | 35136 ft | 442 kts | 155° |
| 2026-05-07 10:29 | 39.97428 | 20.66331 | 35133 ft | 443 kts | 155° |
| 2026-05-07 10:29 | 39.91956 | 20.70084 | 35141 ft | 444 kts | 155° |
| 2026-05-07 10:30 | 39.83792 | 20.75735 | 35115 ft | 446 kts | 156° |
| 2026-05-07 10:30 | 39.78296 | 20.79528 | 35110 ft | 448 kts | 156° |
| 2026-05-07 10:31 | 39.72763 | 20.83338 | 35114 ft | 450 kts | 155° |
| 2026-05-07 10:31 | 39.67222 | 20.87163 | 35125 ft | 451 kts | 155° |
| 2026-05-07 10:32 | 39.61669 | 20.90980 | 35114 ft | 452 kts | 156° |
| 2026-05-07 10:32 | 39.56115 | 20.94778 | 35114 ft | 454 kts | 156° |
| 2026-05-07 10:33 | 39.50506 | 20.98610 | 35118 ft | 456 kts | 156° |
| 2026-05-07 10:33 | 39.44879 | 21.02462 | 35124 ft | 457 kts | 156° |
| 2026-05-07 10:34 | 39.39245 | 21.06305 | 35105 ft | 458 kts | 156° |
| 2026-05-07 10:34 | 39.33616 | 21.10133 | 35103 ft | 462 kts | 158° |
| 2026-05-07 10:35 | 39.27902 | 21.14009 | 35099 ft | 465 kts | 158° |
| 2026-05-07 10:35 | 39.22161 | 21.17902 | 35114 ft | 467 kts | 157° |
| 2026-05-07 10:36 | 39.16399 | 21.21800 | 35123 ft | 467 kts | 157° |
| 2026-05-07 10:36 | 39.10626 | 21.25713 | 35106 ft | 469 kts | 158° |
| 2026-05-07 10:37 | 39.04825 | 21.29625 | 35107 ft | 472 kts | 158° |
| 2026-05-07 10:37 | 38.99025 | 21.33520 | 35112 ft | 474 kts | 158° |
| 2026-05-07 10:38 | 38.93175 | 21.37438 | 35111 ft | 474 kts | 158° |
| 2026-05-07 10:38 | 38.87304 | 21.41376 | 35093 ft | 476 kts | 159° |
| 2026-05-07 10:39 | 38.81452 | 21.45294 | 35099 ft | 479 kts | 159° |
| 2026-05-07 10:39 | 38.75524 | 21.49253 | 35108 ft | 481 kts | 159° |
| 2026-05-07 10:40 | 38.69582 | 21.53216 | 35111 ft | 482 kts | 159° |
| 2026-05-07 10:40 | 38.63620 | 21.57180 | 35116 ft | 483 kts | 159° |
| 2026-05-07 10:41 | 38.57692 | 21.61121 | 35114 ft | 483 kts | 159° |
| 2026-05-07 10:41 | 38.51728 | 21.65082 | 35119 ft | 483 kts | 159° |
| 2026-05-07 10:42 | 38.45754 | 21.69027 | 35126 ft | 483 kts | 160° |
| 2026-05-07 10:42 | 38.39769 | 21.72973 | 35113 ft | 483 kts | 160° |
| 2026-05-07 10:43 | 38.33830 | 21.76885 | 35114 ft | 483 kts | 160° |
| 2026-05-07 10:43 | 38.27840 | 21.80822 | 35109 ft | 484 kts | 160° |
| 2026-05-07 10:44 | 38.21852 | 21.84751 | 35111 ft | 485 kts | 160° |
| 2026-05-07 10:44 | 38.15854 | 21.88683 | 35114 ft | 485 kts | 160° |
| 2026-05-07 10:45 | 38.09863 | 21.92609 | 35115 ft | 484 kts | 160° |
| 2026-05-07 10:45 | 38.03874 | 21.96531 | 35130 ft | 484 kts | 160° |
| 2026-05-07 10:46 | 37.97920 | 22.00412 | 35132 ft | 483 kts | 160° |
| 2026-05-07 10:46 | 37.91930 | 22.04300 | 35129 ft | 483 kts | 160° |
| 2026-05-07 10:47 | 37.85938 | 22.08188 | 35109 ft | 484 kts | 160° |
| 2026-05-07 10:47 | 37.79927 | 22.12087 | 35109 ft | 486 kts | 160° |
| 2026-05-07 10:48 | 37.73901 | 22.15981 | 35108 ft | 487 kts | 160° |
| 2026-05-07 10:48 | 37.67898 | 22.19858 | 35113 ft | 488 kts | 159° |
| 2026-05-07 10:49 | 37.61833 | 22.23775 | 35100 ft | 489 kts | 159° |
| 2026-05-07 10:49 | 37.55755 | 22.27687 | 35107 ft | 490 kts | 159° |
| 2026-05-07 10:50 | 37.49661 | 22.31601 | 35113 ft | 492 kts | 159° |
| 2026-05-07 10:50 | 37.43594 | 22.35490 | 35116 ft | 492 kts | 159° |
| 2026-05-07 10:51 | 37.37472 | 22.39408 | 35105 ft | 494 kts | 160° |
| 2026-05-07 10:51 | 37.31321 | 22.43334 | 35096 ft | 498 kts | 160° |
| 2026-05-07 10:52 | 37.25116 | 22.47281 | 35105 ft | 501 kts | 159° |
| 2026-05-07 10:52 | 37.18931 | 22.51214 | 35124 ft | 502 kts | 159° |
| 2026-05-07 10:53 | 37.12681 | 22.55192 | 35097 ft | 503 kts | 160° |
| 2026-05-07 10:53 | 37.06415 | 22.59171 | 35112 ft | 507 kts | 160° |
| 2026-05-07 10:54 | 37.00106 | 22.63166 | 35117 ft | 509 kts | 160° |
| 2026-05-07 10:54 | 36.93761 | 22.67172 | 35131 ft | 511 kts | 160° |
| 2026-05-07 10:55 | 36.87436 | 22.71157 | 35115 ft | 512 kts | 161° |
| 2026-05-07 10:55 | 36.81061 | 22.75165 | 35120 ft | 514 kts | 161° |
| 2026-05-07 10:56 | 36.74632 | 22.79196 | 35135 ft | 516 kts | 160° |
| 2026-05-07 10:56 | 36.68252 | 22.83203 | 35150 ft | 516 kts | 160° |
| 2026-05-07 10:57 | 36.61832 | 22.87227 | 35139 ft | 516 kts | 160° |
| 2026-05-07 10:57 | 36.56474 | 22.90573 | 35123 ft | 518 kts | 161° |
| 2026-05-07 10:58 | 36.48958 | 22.95247 | 35131 ft | 521 kts | 161° |
| 2026-05-07 10:58 | 36.43548 | 22.98611 | 35130 ft | 522 kts | 160° |
| 2026-05-07 10:59 | 36.37039 | 23.02663 | 35142 ft | 523 kts | 160° |
| 2026-05-07 10:59 | 36.30519 | 23.06714 | 35133 ft | 524 kts | 161° |
| 2026-05-07 11:00 | 36.23988 | 23.10762 | 35145 ft | 525 kts | 160° |
| 2026-05-07 11:00 | 36.17485 | 23.14766 | 35152 ft | 525 kts | 161° |
| 2026-05-07 11:01 | 36.10940 | 23.18787 | 35155 ft | 525 kts | 160° |
| 2026-05-07 11:01 | 36.04388 | 23.22821 | 35158 ft | 525 kts | 160° |
| 2026-05-07 11:02 | 35.97835 | 23.26856 | 35159 ft | 525 kts | 160° |
| 2026-05-07 11:02 | 35.91331 | 23.30848 | 35161 ft | 525 kts | 161° |
| 2026-05-07 11:03 | 35.84776 | 23.34861 | 35163 ft | 525 kts | 161° |
| 2026-05-07 11:03 | 35.78223 | 23.38869 | 35143 ft | 525 kts | 161° |
| 2026-05-07 11:04 | 35.71654 | 23.42869 | 35148 ft | 526 kts | 161° |
| 2026-05-07 11:04 | 35.65126 | 23.46829 | 35152 ft | 526 kts | 160° |
| 2026-05-07 11:05 | 35.58562 | 23.50823 | 35157 ft | 526 kts | 160° |
| 2026-05-07 11:05 | 35.51980 | 23.54822 | 35144 ft | 527 kts | 160° |
| 2026-05-07 11:06 | 35.45397 | 23.58802 | 35151 ft | 527 kts | 160° |
| 2026-05-07 11:06 | 35.38850 | 23.62762 | 35160 ft | 528 kts | 160° |
| 2026-05-07 11:07 | 35.32254 | 23.66737 | 35161 ft | 528 kts | 160° |
| 2026-05-07 11:07 | 35.25646 | 23.70712 | 35147 ft | 529 kts | 160° |
| 2026-05-07 11:08 | 35.19032 | 23.74688 | 35144 ft | 528 kts | 160° |
| 2026-05-07 11:08 | 35.12422 | 23.78650 | 35163 ft | 529 kts | 160° |
| 2026-05-07 11:09 | 35.05852 | 23.82580 | 35166 ft | 529 kts | 160° |
| 2026-05-07 11:09 | 34.99225 | 23.86537 | 35154 ft | 530 kts | 160° |
| 2026-05-07 11:10 | 34.92594 | 23.90490 | 35161 ft | 530 kts | 160° |
| 2026-05-07 11:10 | 34.85960 | 23.94446 | 35164 ft | 531 kts | 160° |
| 2026-05-07 11:11 | 34.79328 | 23.98390 | 35172 ft | 531 kts | 160° |
| 2026-05-07 11:11 | 34.72724 | 24.02311 | 35168 ft | 531 kts | 160° |
| 2026-05-07 11:12 | 34.66086 | 24.06242 | 35177 ft | 530 kts | 160° |
| 2026-05-07 11:12 | 34.59438 | 24.10170 | 35176 ft | 531 kts | 159° |
| 2026-05-07 11:13 | 34.52773 | 24.14104 | 35173 ft | 531 kts | 159° |
| 2026-05-07 11:13 | 34.46155 | 24.17994 | 35170 ft | 531 kts | 159° |
| 2026-05-07 11:14 | 34.39496 | 24.21911 | 35178 ft | 531 kts | 159° |
| 2026-05-07 11:14 | 34.32843 | 24.25826 | 35183 ft | 531 kts | 159° |
| 2026-05-07 11:15 | 34.26185 | 24.29725 | 35181 ft | 531 kts | 160° |
| 2026-05-07 11:15 | 34.19562 | 24.33592 | 35169 ft | 530 kts | 159° |
| 2026-05-07 11:16 | 34.12914 | 24.37468 | 35186 ft | 530 kts | 159° |
| 2026-05-07 11:16 | 34.06261 | 24.41343 | 35180 ft | 530 kts | 159° |
| 2026-05-07 11:17 | 33.99791 | 24.45568 | 35178 ft | 537 kts | 147° |
| 2026-05-07 11:17 | 33.94071 | 24.51412 | 35156 ft | 539 kts | 139° |
| 2026-05-07 11:18 | 33.88471 | 24.57445 | 35183 ft | 539 kts | 140° |
| 2026-05-07 11:18 | 33.82897 | 24.63413 | 35187 ft | 539 kts | 140° |
| 2026-05-07 11:19 | 33.77294 | 24.69417 | 35192 ft | 539 kts | 140° |
| 2026-05-07 11:19 | 33.71689 | 24.75414 | 35193 ft | 539 kts | 140° |
| 2026-05-07 11:20 | 33.66082 | 24.81401 | 35193 ft | 539 kts | 140° |
| 2026-05-07 11:20 | 33.60481 | 24.87365 | 35188 ft | 538 kts | 140° |
| 2026-05-07 11:21 | 33.54910 | 24.93289 | 35195 ft | 538 kts | 140° |
| 2026-05-07 11:21 | 33.49298 | 24.99251 | 35196 ft | 537 kts | 140° |
| 2026-05-07 11:22 | 33.43730 | 25.05159 | 35192 ft | 538 kts | 139° |
| 2026-05-07 11:22 | 33.38123 | 25.11093 | 35184 ft | 538 kts | 140° |
| 2026-05-07 11:23 | 33.32500 | 25.17023 | 35186 ft | 538 kts | 139° |
| 2026-05-07 11:23 | 33.26882 | 25.22953 | 35185 ft | 539 kts | 140° |
| 2026-05-07 11:24 | 33.21247 | 25.28881 | 35188 ft | 539 kts | 140° |
| 2026-05-07 11:24 | 33.15647 | 25.34763 | 35202 ft | 539 kts | 139° |
| 2026-05-07 11:25 | 33.10006 | 25.40680 | 35181 ft | 540 kts | 139° |
| 2026-05-07 11:25 | 33.04351 | 25.46601 | 35179 ft | 541 kts | 139° |
| 2026-05-07 11:26 | 32.98723 | 25.52484 | 35184 ft | 541 kts | 139° |
| 2026-05-07 11:26 | 32.93060 | 25.58385 | 35194 ft | 540 kts | 139° |
| 2026-05-07 11:27 | 32.87405 | 25.64279 | 35210 ft | 540 kts | 139° |
| 2026-05-07 11:27 | 32.81740 | 25.70164 | 35198 ft | 541 kts | 139° |
| 2026-05-07 11:28 | 32.76065 | 25.76043 | 35181 ft | 541 kts | 139° |
| 2026-05-07 11:28 | 32.70379 | 25.81920 | 35169 ft | 541 kts | 139° |
| 2026-05-07 11:29 | 32.64735 | 25.87757 | 35185 ft | 541 kts | 139° |
| 2026-05-07 11:29 | 32.59053 | 25.93633 | 35190 ft | 541 kts | 139° |
| 2026-05-07 11:30 | 32.53369 | 25.99499 | 35195 ft | 542 kts | 139° |
| 2026-05-07 11:30 | 32.47668 | 26.05363 | 35191 ft | 542 kts | 139° |
| 2026-05-07 11:31 | 32.41994 | 26.11185 | 35191 ft | 543 kts | 139° |
| 2026-05-07 11:31 | 32.36286 | 26.17039 | 35181 ft | 543 kts | 139° |
| 2026-05-07 11:32 | 32.27710 | 26.25803 | 35194 ft | 542 kts | 139° |
| 2026-05-07 11:33 | 32.22003 | 26.31623 | 35198 ft | 542 kts | 138° |
| 2026-05-07 11:33 | 32.16320 | 26.37418 | 35194 ft | 542 kts | 138° |
| 2026-05-07 11:34 | 32.10614 | 26.43230 | 35190 ft | 542 kts | 138° |
| 2026-05-07 11:34 | 32.04901 | 26.49033 | 35180 ft | 542 kts | 139° |
| 2026-05-07 11:35 | 31.99180 | 26.54821 | 35185 ft | 542 kts | 139° |
| 2026-05-07 11:35 | 31.93458 | 26.60609 | 35191 ft | 542 kts | 138° |
| 2026-05-07 11:36 | 31.87763 | 26.66375 | 35191 ft | 542 kts | 138° |
| 2026-05-07 11:36 | 31.82026 | 26.72167 | 35192 ft | 543 kts | 138° |
| 2026-05-07 11:37 | 31.76288 | 26.77944 | 35196 ft | 543 kts | 138° |
| 2026-05-07 11:37 | 31.70540 | 26.83707 | 35197 ft | 543 kts | 138° |
| 2026-05-07 11:38 | 31.64834 | 26.89431 | 35214 ft | 542 kts | 137° |
| 2026-05-07 11:38 | 31.59085 | 26.95187 | 35211 ft | 542 kts | 137° |
| 2026-05-07 11:39 | 31.53348 | 27.00929 | 35206 ft | 542 kts | 137° |
| 2026-05-07 11:39 | 31.47614 | 27.06659 | 35203 ft | 542 kts | 138° |
| 2026-05-07 11:40 | 31.41902 | 27.12354 | 35189 ft | 541 kts | 138° |
| 2026-05-07 11:40 | 31.36160 | 27.18059 | 35210 ft | 541 kts | 137° |
| 2026-05-07 11:41 | 31.30067 | 27.23193 | 35238 ft | 543 kts | 152° |
| 2026-05-07 11:41 | 31.23245 | 27.26986 | 35236 ft | 542 kts | 156° |
| 2026-05-07 11:42 | 31.16382 | 27.30682 | 35225 ft | 542 kts | 156° |
| 2026-05-07 11:42 | 31.09534 | 27.34389 | 35206 ft | 542 kts | 155° |
| 2026-05-07 11:43 | 31.02736 | 27.38083 | 35200 ft | 542 kts | 156° |
| 2026-05-07 11:43 | 30.95897 | 27.41787 | 35189 ft | 542 kts | 154° |
| 2026-05-07 11:44 | 30.89619 | 27.46602 | 35184 ft | 540 kts | 139° |
| 2026-05-07 11:44 | 30.83745 | 27.52076 | 35179 ft | 540 kts | 139° |
| 2026-05-07 11:45 | 30.77901 | 27.57487 | 35170 ft | 540 kts | 139° |
| 2026-05-07 11:45 | 30.72018 | 27.62916 | 35168 ft | 539 kts | 139° |
| 2026-05-07 11:46 | 30.66132 | 27.68346 | 35167 ft | 539 kts | 139° |
| 2026-05-07 11:46 | 30.60293 | 27.73732 | 35155 ft | 539 kts | 139° |
| 2026-05-07 11:47 | 30.54413 | 27.79153 | 35152 ft | 539 kts | 139° |
| 2026-05-07 11:47 | 30.48526 | 27.84567 | 35137 ft | 539 kts | 139° |
| 2026-05-07 11:48 | 30.42678 | 27.89946 | 35144 ft | 539 kts | 139° |
| 2026-05-07 11:48 | 30.36791 | 27.95335 | 35151 ft | 539 kts | 139° |
| 2026-05-07 11:49 | 30.30897 | 28.00722 | 35152 ft | 539 kts | 139° |
| 2026-05-07 11:49 | 30.25042 | 28.06069 | 35146 ft | 539 kts | 139° |
| 2026-05-07 11:50 | 30.19160 | 28.11449 | 35156 ft | 538 kts | 139° |
| 2026-05-07 11:50 | 30.13278 | 28.16805 | 35146 ft | 538 kts | 139° |
| 2026-05-07 11:51 | 30.08391 | 28.21235 | 35141 ft | 537 kts | 139° |
| 2026-05-07 11:51 | 30.02499 | 28.26577 | 35139 ft | 537 kts | 139° |
| 2026-05-07 11:52 | 29.96620 | 28.31917 | 35136 ft | 537 kts | 139° |
| 2026-05-07 11:52 | 29.90734 | 28.37248 | 35151 ft | 537 kts | 139° |
| 2026-05-07 11:53 | 29.85276 | 28.42971 | 35137 ft | 528 kts | 125° |
| 2026-05-07 11:53 | 29.80783 | 28.49621 | 35139 ft | 525 kts | 122° |
| 2026-05-07 11:54 | 29.76327 | 28.56280 | 35134 ft | 524 kts | 122° |
| 2026-05-07 11:54 | 29.71868 | 28.62933 | 35132 ft | 524 kts | 122° |
| 2026-05-07 11:55 | 29.67406 | 28.69575 | 35151 ft | 524 kts | 122° |
| 2026-05-07 11:55 | 29.62972 | 28.76156 | 35143 ft | 523 kts | 122° |
| 2026-05-07 11:56 | 29.58521 | 28.82762 | 35138 ft | 522 kts | 122° |
| 2026-05-07 11:56 | 29.54074 | 28.89354 | 35132 ft | 521 kts | 122° |
| 2026-05-07 11:57 | 29.49614 | 28.95933 | 35132 ft | 521 kts | 122° |
| 2026-05-07 11:57 | 29.45301 | 29.02584 | 35131 ft | 513 kts | 114° |
| 2026-05-07 11:58 | 29.42543 | 29.09880 | 35131 ft | 492 kts | 96° |
| 2026-05-07 11:58 | 29.41865 | 29.13683 | 35129 ft | 481 kts | 88° |
| 2026-05-07 11:58 | 29.41635 | 29.17468 | 35127 ft | 471 kts | 81° |
| 2026-05-07 11:59 | 29.41561 | 29.24997 | 35146 ft | 471 kts | 81° |
| 2026-05-07 11:59 | 29.41467 | 29.32470 | 35150 ft | 470 kts | 81° |
| 2026-05-07 12:00 | 29.41365 | 29.39978 | 35138 ft | 469 kts | 81° |
| 2026-05-07 12:00 | 29.41267 | 29.47449 | 35135 ft | 468 kts | 81° |
| 2026-05-07 12:01 | 29.41168 | 29.54919 | 35153 ft | 467 kts | 82° |
| 2026-05-07 12:01 | 29.41067 | 29.62316 | 35127 ft | 466 kts | 82° |
| 2026-05-07 12:02 | 29.40957 | 29.69746 | 35124 ft | 466 kts | 82° |
| 2026-05-07 12:02 | 29.40843 | 29.77180 | 35121 ft | 465 kts | 82° |
| 2026-05-07 12:03 | 29.40729 | 29.84555 | 35127 ft | 466 kts | 84° |
| 2026-05-07 12:03 | 29.40613 | 29.92009 | 35097 ft | 467 kts | 84° |
| 2026-05-07 12:04 | 29.40491 | 29.99464 | 35091 ft | 468 kts | 84° |
| 2026-05-07 12:04 | 29.40359 | 30.06954 | 35089 ft | 469 kts | 84° |
| 2026-05-07 12:05 | 29.40222 | 30.14393 | 35099 ft | 470 kts | 86° |
| 2026-05-07 12:05 | 29.40076 | 30.21905 | 35083 ft | 471 kts | 86° |
| 2026-05-07 12:06 | 29.39930 | 30.29435 | 35084 ft | 472 kts | 86° |
| 2026-05-07 12:06 | 29.38956 | 30.36882 | 35084 ft | 483 kts | 104° |
| 2026-05-07 12:06 | 29.37661 | 30.40454 | 35094 ft | 488 kts | 115° |
| 2026-05-07 12:07 | 29.35842 | 30.43754 | 35095 ft | 490 kts | 126° |
| 2026-05-07 12:07 | 29.31190 | 30.49493 | 35099 ft | 491 kts | 133° |
| 2026-05-07 12:08 | 29.26475 | 30.55102 | 35099 ft | 491 kts | 133° |
| 2026-05-07 12:08 | 29.21744 | 30.60759 | 35087 ft | 492 kts | 133° |
| 2026-05-07 12:09 | 29.16998 | 30.66416 | 35081 ft | 493 kts | 133° |
| 2026-05-07 12:09 | 29.12234 | 30.72067 | 35081 ft | 494 kts | 133° |
| 2026-05-07 12:10 | 29.07459 | 30.77727 | 35088 ft | 494 kts | 133° |
| 2026-05-07 12:10 | 29.02711 | 30.83358 | 35086 ft | 495 kts | 133° |
| 2026-05-07 12:11 | 28.97924 | 30.89015 | 35086 ft | 495 kts | 133° |
| 2026-05-07 12:11 | 28.93115 | 30.94675 | 35095 ft | 496 kts | 133° |
| 2026-05-07 12:12 | 28.88316 | 31.00321 | 35109 ft | 495 kts | 133° |
| 2026-05-07 12:12 | 28.83536 | 31.05959 | 35112 ft | 494 kts | 133° |
| 2026-05-07 12:13 | 28.78783 | 31.11555 | 35110 ft | 493 kts | 133° |
| 2026-05-07 12:13 | 28.74007 | 31.17153 | 35106 ft | 492 kts | 134° |
| 2026-05-07 12:14 | 28.69239 | 31.22747 | 35097 ft | 491 kts | 133° |
| 2026-05-07 12:14 | 28.64609 | 31.28480 | 35105 ft | 489 kts | 131° |
| 2026-05-07 12:15 | 28.60138 | 31.34244 | 35100 ft | 487 kts | 131° |
| 2026-05-07 12:15 | 28.55630 | 31.40002 | 35099 ft | 487 kts | 131° |
| 2026-05-07 12:16 | 28.51079 | 31.45702 | 35102 ft | 486 kts | 132° |
| 2026-05-07 12:16 | 28.46527 | 31.51381 | 35097 ft | 485 kts | 132° |
| 2026-05-07 12:17 | 28.42027 | 31.57028 | 35096 ft | 484 kts | 132° |
| 2026-05-07 12:17 | 28.37511 | 31.62687 | 35093 ft | 483 kts | 132° |
| 2026-05-07 12:18 | 28.32997 | 31.68334 | 35085 ft | 482 kts | 132° |
| 2026-05-07 12:18 | 28.28483 | 31.73967 | 35074 ft | 482 kts | 132° |
| 2026-05-07 12:19 | 28.23961 | 31.79591 | 35071 ft | 482 kts | 132° |
| 2026-05-07 12:19 | 28.19467 | 31.85172 | 35081 ft | 481 kts | 133° |
| 2026-05-07 12:20 | 28.14965 | 31.90770 | 35075 ft | 480 kts | 133° |
| 2026-05-07 12:20 | 28.10462 | 31.96359 | 35073 ft | 479 kts | 133° |
| 2026-05-07 12:21 | 28.06261 | 32.02201 | 35062 ft | 479 kts | 120° |
| 2026-05-07 12:21 | 28.03774 | 32.09146 | 35046 ft | 476 kts | 101° |
| 2026-05-07 12:22 | 28.03271 | 32.16526 | 35045 ft | 473 kts | 89° |
| 2026-05-07 12:22 | 28.03226 | 32.23970 | 35037 ft | 472 kts | 89° |
| 2026-05-07 12:23 | 28.03160 | 32.31416 | 35019 ft | 473 kts | 89° |
| 2026-05-07 12:23 | 28.03083 | 32.38862 | 35021 ft | 472 kts | 90° |
| 2026-05-07 12:24 | 28.03004 | 32.46250 | 35001 ft | 472 kts | 90° |
| 2026-05-07 12:24 | 28.02935 | 32.53678 | 34997 ft | 472 kts | 89° |
| 2026-05-07 12:25 | 28.02861 | 32.61117 | 34998 ft | 472 kts | 90° |
| 2026-05-07 12:25 | 28.02783 | 32.68563 | 34994 ft | 473 kts | 90° |
| 2026-05-07 12:26 | 28.02688 | 32.75962 | 34987 ft | 473 kts | 90° |
| 2026-05-07 12:26 | 28.02584 | 32.83419 | 34989 ft | 474 kts | 90° |
| 2026-05-07 12:27 | 28.02494 | 32.90895 | 34344 ft | 477 kts | 90° |
| 2026-05-07 12:27 | 28.02450 | 32.94689 | 33135 ft | 487 kts | 90° |
| 2026-05-07 12:27 | 28.02402 | 32.98560 | 31977 ft | 494 kts | 90° |
| 2026-05-07 12:27 | 28.02349 | 33.02437 | 31336 ft | 489 kts | 89° |
| 2026-05-07 12:28 | 28.02291 | 33.06268 | 30728 ft | 484 kts | 90° |
| 2026-05-07 12:28 | 28.02232 | 33.10059 | 30189 ft | 479 kts | 90° |
| 2026-05-07 12:28 | 28.02176 | 33.13761 | 29488 ft | 476 kts | 89° |
| 2026-05-07 12:28 | 28.02124 | 33.17490 | 29051 ft | 467 kts | 90° |
| 2026-05-07 12:29 | 28.02072 | 33.21125 | 28929 ft | 456 kts | 90° |
| 2026-05-07 12:29 | 28.02019 | 33.24763 | 28823 ft | 465 kts | 90° |
| 2026-05-07 12:29 | 28.01963 | 33.28435 | 28705 ft | 467 kts | 90° |
| 2026-05-07 12:29 | 28.01906 | 33.32126 | 28595 ft | 471 kts | 90° |
| 2026-05-07 12:30 | 28.01851 | 33.35825 | 28486 ft | 468 kts | 90° |
| 2026-05-07 12:30 | 28.01796 | 33.39470 | 28366 ft | 469 kts | 90° |
| 2026-05-07 12:30 | 28.01738 | 33.43174 | 28198 ft | 472 kts | 90° |
| 2026-05-07 12:30 | 28.01677 | 33.46909 | 27140 ft | 477 kts | 91° |
| 2026-05-07 12:31 | 28.01613 | 33.50683 | 25959 ft | 483 kts | 90° |
| 2026-05-07 12:31 | 28.01544 | 33.54510 | 24795 ft | 488 kts | 91° |
| 2026-05-07 12:31 | 28.01472 | 33.58340 | 24020 ft | 484 kts | 90° |
| 2026-05-07 12:31 | 28.01400 | 33.62143 | 23094 ft | 481 kts | 91° |
| 2026-05-07 12:32 | 28.01330 | 33.65914 | 22249 ft | 476 kts | 91° |
| 2026-05-07 12:32 | 28.01264 | 33.69643 | 21423 ft | 471 kts | 91° |
| 2026-05-07 12:32 | 28.01200 | 33.73340 | 20591 ft | 467 kts | 91° |
| 2026-05-07 12:32 | 28.01135 | 33.77000 | 19774 ft | 464 kts | 91° |
| 2026-05-07 12:33 | 28.01004 | 33.84226 | 18125 ft | 459 kts | 91° |
| 2026-05-07 12:33 | 28.00936 | 33.87835 | 17284 ft | 456 kts | 91° |
| 2026-05-07 12:33 | 28.00867 | 33.91399 | 16532 ft | 450 kts | 91° |
| 2026-05-07 12:34 | 28.00795 | 33.94927 | 15810 ft | 446 kts | 91° |
| 2026-05-07 12:34 | 28.00723 | 33.98425 | 15102 ft | 441 kts | 91° |
| 2026-05-07 12:34 | 28.00652 | 34.01878 | 14409 ft | 437 kts | 91° |
| 2026-05-07 12:34 | 28.00580 | 34.05308 | 13709 ft | 434 kts | 91° |
| 2026-05-07 12:35 | 28.00510 | 34.08719 | 12954 ft | 432 kts | 91° |
| 2026-05-07 12:35 | 28.00440 | 34.12107 | 12234 ft | 429 kts | 91° |
| 2026-05-07 12:35 | 28.00369 | 34.15438 | 11512 ft | 426 kts | 91° |
| 2026-05-07 12:35 | 28.00299 | 34.18747 | 11160 ft | 413 kts | 91° |
| 2026-05-07 12:36 | 28.00231 | 34.21912 | 11028 ft | 393 kts | 91° |
| 2026-05-07 12:36 | 28.00165 | 34.24930 | 10917 ft | 374 kts | 91° |
| 2026-05-07 12:36 | 28.00101 | 34.27814 | 10810 ft | 358 kts | 91° |
| 2026-05-07 12:36 | 28.00040 | 34.30585 | 10679 ft | 344 kts | 91° |
| 2026-05-07 12:37 | 27.99933 | 34.33224 | 10554 ft | 326 kts | 99° |
| 2026-05-07 12:37 | 27.99227 | 34.35568 | 10281 ft | 309 kts | 123° |
| 2026-05-07 12:37 | 27.97819 | 34.37333 | 10125 ft | 300 kts | 146° |
| 2026-05-07 12:37 | 27.95966 | 34.38367 | 9986 ft | 297 kts | 167° |
| 2026-05-07 12:38 | 27.94618 | 34.38596 | 9735 ft | 293 kts | 181° |
| 2026-05-07 12:38 | 27.92638 | 34.38216 | 9123 ft | 286 kts | 202° |
| 2026-05-07 12:38 | 27.90180 | 34.37127 | 8230 ft | 287 kts | 203° |
| 2026-05-07 12:38 | 27.88922 | 34.36570 | 7813 ft | 287 kts | 202° |
| 2026-05-07 12:39 | 27.87064 | 34.35750 | 7203 ft | 288 kts | 202° |
| 2026-05-07 12:39 | 27.85216 | 34.34936 | 6855 ft | 287 kts | 202° |
| 2026-05-07 12:39 | 27.83362 | 34.34123 | 6284 ft | 285 kts | 202° |
| 2026-05-07 12:39 | 27.81509 | 34.33309 | 5664 ft | 284 kts | 202° |
| 2026-05-07 12:40 | 27.79666 | 34.32501 | 5047 ft | 284 kts | 202° |
| 2026-05-07 12:40 | 27.77842 | 34.31704 | 4752 ft | 275 kts | 201° |
| 2026-05-07 12:40 | 27.76082 | 34.30933 | 4625 ft | 266 kts | 202° |
| 2026-05-07 12:40 | 27.74488 | 34.30018 | 4496 ft | 256 kts | 219° |
| 2026-05-07 12:41 | 27.73295 | 34.28598 | 4366 ft | 244 kts | 239° |
| 2026-05-07 12:41 | 27.72620 | 34.26906 | 4214 ft | 232 kts | 259° |
| 2026-05-07 12:41 | 27.72456 | 34.25129 | 3939 ft | 226 kts | 277° |
| 2026-05-07 12:41 | 27.72781 | 34.23415 | 3698 ft | 222 kts | 293° |
| 2026-05-07 12:42 | 27.73522 | 34.21924 | 3370 ft | 220 kts | 310° |
| 2026-05-07 12:42 | 27.74632 | 34.20749 | 3068 ft | 218 kts | 327° |
| 2026-05-07 12:42 | 27.75978 | 34.20017 | 2926 ft | 216 kts | 342° |
| 2026-05-07 12:42 | 27.77464 | 34.19752 | 2896 ft | 219 kts | 359° |
| 2026-05-07 12:43 | 27.78975 | 34.19994 | 2897 ft | 220 kts | 16° |
| 2026-05-07 12:43 | 27.80327 | 34.20797 | 2897 ft | 223 kts | 43° |
| 2026-05-07 12:43 | 27.81358 | 34.22111 | 2904 ft | 221 kts | 43° |
| 2026-05-07 12:43 | 27.82458 | 34.23300 | 2897 ft | 220 kts | 41° |
| 2026-05-07 12:44 | 27.83584 | 34.24461 | 2813 ft | 218 kts | 41° |
| 2026-05-07 12:44 | 27.84687 | 34.25603 | 2661 ft | 210 kts | 41° |
| 2026-05-07 12:44 | 27.85744 | 34.26701 | 2539 ft | 203 kts | 39° |
| 2026-05-07 12:44 | 27.86787 | 34.27785 | 2454 ft | 203 kts | 40° |
| 2026-05-07 12:45 | 27.87823 | 34.28862 | 2394 ft | 201 kts | 43° |
| 2026-05-07 12:45 | 27.88822 | 34.29901 | 2248 ft | 192 kts | 43° |
| 2026-05-07 12:45 | 27.89794 | 34.30912 | 2000 ft | 186 kts | 43° |
| 2026-05-07 12:45 | 27.90720 | 34.31876 | 1780 ft | 176 kts | 43° |
| 2026-05-07 12:46 | 27.91596 | 34.32787 | 1554 ft | 166 kts | 41° |
| 2026-05-07 12:46 | 27.92406 | 34.33632 | 1376 ft | 152 kts | 41° |
| 2026-05-07 12:46 | 27.93160 | 34.34416 | 1124 ft | 145 kts | 41° |
| 2026-05-07 12:46 | 27.93874 | 34.35162 | 945 ft | 138 kts | 40° |
| 2026-05-07 12:47 | 27.94587 | 34.35900 | 754 ft | 139 kts | 41° |
| 2026-05-07 12:47 | 27.95297 | 34.36638 | 605 ft | 138 kts | 41° |
| 2026-05-07 12:47 | 27.95995 | 34.37365 | 399 ft | 135 kts | 41° |
| 2026-05-07 12:47 | 27.96686 | 34.38085 | 238 ft | 134 kts | 41° |
| 2026-05-07 12:48 | 27.97352 | 34.38769 | 174 ft | 115 kts | 44° |
| 2026-05-07 12:48 | 27.97809 | 34.39250 | 174 ft | 65 kts | 41° |
| 2026-05-07 12:48 | 27.98015 | 34.39464 | 175 ft | 15 kts | 43° |
| 2026-05-07 12:48 | 27.98091 | 34.39544 | 174 ft | 16 kts | 43° |
| 2026-05-07 12:49 | 27.98141 | 34.39566 | 174 ft | 7 kts | 321° |
| 2026-05-07 12:49 | 27.98186 | 34.39522 | 174 ft | 10 kts | 317° |
| 2026-05-07 12:49 | 27.98239 | 34.39456 | 172 ft | 11 kts | 310° |
| 2026-05-07 12:49 | 27.98242 | 34.39395 | 172 ft | 10 kts | 219° |
| 2026-05-07 12:50 | 27.98182 | 34.39345 | 172 ft | 12 kts | 218° |
| 2026-05-07 12:50 | 27.98115 | 34.39281 | 172 ft | 14 kts | 224° |
| 2026-05-07 12:50 | 27.98047 | 34.39197 | 172 ft | 16 kts | 227° |
| 2026-05-07 12:50 | 27.97964 | 34.39108 | 172 ft | 18 kts | 217° |
| 2026-05-07 12:51 | 27.97884 | 34.39028 | 172 ft | 10 kts | 223° |
| 2026-05-07 12:51 | 27.97877 | 34.38961 | 172 ft | 10 kts | 312° |
| 2026-05-07 12:51 | 27.97937 | 34.38904 | 172 ft | 13 kts | 316° |
| 2026-05-07 12:51 | 27.97984 | 34.38848 | 172 ft | 8 kts | 311° |
| 2026-05-07 12:52 | 27.97969 | 34.38794 | 172 ft | 9 kts | 221° |
| 2026-05-07 12:52 | 27.97916 | 34.38742 | 172 ft | 11 kts | 221° |
| 2026-05-07 12:52 | 27.97856 | 34.38682 | 172 ft | 7 kts | 220° |
| 2026-05-07 12:52 | 27.97848 | 34.38676 | 172 ft | 2 kts | 219° |
| 2026-05-07 12:53 | 27.97828 | 34.38675 | 172 ft | 4 kts | 160° |
| 2026-05-07 12:53 | 27.97808 | 34.38701 | 172 ft | 3 kts | 130° |
| 2026-05-07 12:53 | 27.97804 | 34.38707 | 172 ft | 0 kts | 132° |